sensor_id;sensor_type;location;lat;lon;timestamp;pressure;altitude;pressure_sealevel;temperature;humidity
77149;BME280;66122;47.130;16.844;2023-04-24T00:03:07;98695.16;;;14.24;67.23
77149;BME280;66122;47.130;16.844;2023-04-24T00:13:11;98686.38;;;14.12;66.86
77149;BME280;66122;47.130;16.844;2023-04-24T00:23:13;98683.50;;;13.94;68.82
77149;BME280;66122;47.130;16.844;2023-04-24T00:33:16;98677.91;;;13.97;67.17
77149;BME280;66122;47.130;16.844;2023-04-24T00:43:18;98668.22;;;13.96;67.56
77149;BME280;66122;47.130;16.844;2023-04-24T00:53:21;98671.47;;;13.79;68.10
77149;BME280;66122;47.130;16.844;2023-04-24T01:03:29;98654.56;;;13.69;66.96
77149;BME280;66122;47.130;16.844;2023-04-24T01:13:33;98640.41;;;13.48;68.43
77149;BME280;66122;47.130;16.844;2023-04-24T01:23:37;98649.03;;;13.40;68.01
77149;BME280;66122;47.130;16.844;2023-04-24T01:33:42;98638.25;;;13.42;68.04
77149;BME280;66122;47.130;16.844;2023-04-24T01:43:44;98640.31;;;13.17;68.08
77149;BME280;66122;47.130;16.844;2023-04-24T01:53:47;98639.84;;;12.90;69.50
77149;BME280;66122;47.130;16.844;2023-04-24T02:03:50;98632.88;;;12.78;69.49
77149;BME280;66122;47.130;16.844;2023-04-24T02:13:53;98621.78;;;12.62;70.65
77149;BME280;66122;47.130;16.844;2023-04-24T02:23:56;98617.84;;;12.45;71.11
77149;BME280;66122;47.130;16.844;2023-04-24T02:33:58;98620.16;;;12.27;71.88
77149;BME280;66122;47.130;16.844;2023-04-24T02:44:02;98618.34;;;11.94;73.37
77149;BME280;66122;47.130;16.844;2023-04-24T02:54:04;98619.81;;;11.63;74.32
77149;BME280;66122;47.130;16.844;2023-04-24T03:04:07;98624.31;;;11.28;77.08
77149;BME280;66122;47.130;16.844;2023-04-24T03:14:10;98632.00;;;10.60;80.65
77149;BME280;66122;47.130;16.844;2023-04-24T03:24:12;98627.41;;;10.50;81.01
77149;BME280;66122;47.130;16.844;2023-04-24T03:34:16;98632.16;;;10.58;81.51
77149;BME280;66122;47.130;16.844;2023-04-24T03:44:19;98655.16;;;10.45;80.93
77149;BME280;66122;47.130;16.844;2023-04-24T03:54:22;98655.38;;;10.16;84.22
77149;BME280;66122;47.130;16.844;2023-04-24T04:04:26;98654.44;;;10.30;83.34
77149;BME280;66122;47.130;16.844;2023-04-24T04:14:29;98653.88;;;10.38;86.15
77149;BME280;66122;47.130;16.844;2023-04-24T04:24:31;98664.47;;;11.11;82.17
77149;BME280;66122;47.130;16.844;2023-04-24T04:34:34;98676.13;;;11.56;80.04
77149;BME280;66122;47.130;16.844;2023-04-24T04:44:40;98677.34;;;11.87;81.32
77149;BME280;66122;47.130;16.844;2023-04-24T04:54:47;98689.44;;;12.02;80.50
77149;BME280;66122;47.130;16.844;2023-04-24T05:04:50;98694.50;;;11.94;81.87
77149;BME280;66122;47.130;16.844;2023-04-24T05:14:55;98698.25;;;12.13;80.63
77149;BME280;66122;47.130;16.844;2023-04-24T05:24:57;98695.97;;;12.09;81.22
77149;BME280;66122;47.130;16.844;2023-04-24T05:35:14;98695.25;;;12.40;79.11
77149;BME280;66122;47.130;16.844;2023-04-24T05:45:17;98704.78;;;12.76;77.23
77149;BME280;66122;47.130;16.844;2023-04-24T05:55:20;98690.50;;;13.11;75.64
77149;BME280;66122;47.130;16.844;2023-04-24T06:05:22;98685.88;;;13.24;76.72
77149;BME280;66122;47.130;16.844;2023-04-24T06:15:29;98690.09;;;13.58;72.34
77149;BME280;66122;47.130;16.844;2023-04-24T06:25:51;98690.22;;;14.19;68.10
77149;BME280;66122;47.130;16.844;2023-04-24T06:35:54;98694.75;;;14.79;66.60
77149;BME280;66122;47.130;16.844;2023-04-24T06:45:57;98698.44;;;14.88;66.38
77149;BME280;66122;47.130;16.844;2023-04-24T06:56:02;98696.88;;;14.55;64.63
77149;BME280;66122;47.130;16.844;2023-04-24T07:06:05;98701.59;;;14.42;65.03
77149;BME280;66122;47.130;16.844;2023-04-24T07:16:08;98706.31;;;14.90;62.63
77149;BME280;66122;47.130;16.844;2023-04-24T07:26:11;98705.19;;;15.02;63.04
77149;BME280;66122;47.130;16.844;2023-04-24T07:36:14;98703.25;;;15.04;63.61
77149;BME280;66122;47.130;16.844;2023-04-24T07:46:21;98716.22;;;15.37;64.11
77149;BME280;66122;47.130;16.844;2023-04-24T07:56:24;98716.97;;;14.90;63.80
77149;BME280;66122;47.130;16.844;2023-04-24T08:06:29;98718.50;;;15.51;63.11
77149;BME280;66122;47.130;16.844;2023-04-24T08:16:33;98725.22;;;15.36;66.02
77149;BME280;66122;47.130;16.844;2023-04-24T08:26:36;98717.69;;;15.99;63.27
77149;BME280;66122;47.130;16.844;2023-04-24T08:36:38;98723.72;;;16.11;61.91
77149;BME280;66122;47.130;16.844;2023-04-24T08:46:49;98731.19;;;15.88;65.15
77149;BME280;66122;47.130;16.844;2023-04-24T08:56:53;98736.03;;;15.35;67.37
77149;BME280;66122;47.130;16.844;2023-04-24T09:06:57;98742.63;;;15.31;71.62
77149;BME280;66122;47.130;16.844;2023-04-24T09:17:20;98745.34;;;14.91;73.48
77149;BME280;66122;47.130;16.844;2023-04-24T09:27:25;98738.75;;;14.64;77.07
77149;BME280;66122;47.130;16.844;2023-04-24T09:37:30;98748.69;;;14.83;81.23
77149;BME280;66122;47.130;16.844;2023-04-24T09:47:38;98723.63;;;15.14;79.96
77149;BME280;66122;47.130;16.844;2023-04-24T09:57:49;98733.16;;;15.67;75.89
77149;BME280;66122;47.130;16.844;2023-04-24T10:07:57;98738.22;;;15.89;71.15
77149;BME280;66122;47.130;16.844;2023-04-24T10:17:59;98743.84;;;15.67;72.14
77149;BME280;66122;47.130;16.844;2023-04-24T10:28:03;98742.75;;;15.29;79.86
77149;BME280;66122;47.130;16.844;2023-04-24T10:38:11;98762.38;;;14.69;85.75
77149;BME280;66122;47.130;16.844;2023-04-24T10:48:14;98767.41;;;14.41;86.27
77149;BME280;66122;47.130;16.844;2023-04-24T10:58:24;98780.16;;;14.27;87.05
77149;BME280;66122;47.130;16.844;2023-04-24T11:08:45;98779.28;;;14.17;91.29
77149;BME280;66122;47.130;16.844;2023-04-24T11:18:52;98802.59;;;13.72;92.20
77149;BME280;66122;47.130;16.844;2023-04-24T11:29:06;98802.47;;;13.62;94.91
77149;BME280;66122;47.130;16.844;2023-04-24T11:39:10;98811.00;;;13.45;100.00
77149;BME280;66122;47.130;16.844;2023-04-24T11:49:14;98821.19;;;13.40;97.85
77149;BME280;66122;47.130;16.844;2023-04-24T11:59:17;98802.41;;;13.41;100.00
77149;BME280;66122;47.130;16.844;2023-04-24T12:09:20;98816.75;;;13.72;98.31
77149;BME280;66122;47.130;16.844;2023-04-24T12:19:23;98814.59;;;13.66;99.55
77149;BME280;66122;47.130;16.844;2023-04-24T12:29:26;98811.16;;;13.32;100.00
77149;BME280;66122;47.130;16.844;2023-04-24T12:39:28;98819.00;;;13.34;100.00
77149;BME280;66122;47.130;16.844;2023-04-24T12:49:31;98797.84;;;12.99;100.00
77149;BME280;66122;47.130;16.844;2023-04-24T12:59:33;98829.63;;;12.67;100.00
77149;BME280;66122;47.130;16.844;2023-04-24T13:09:36;98834.00;;;12.33;100.00
77149;BME280;66122;47.130;16.844;2023-04-24T13:19:41;98832.81;;;12.37;100.00
77149;BME280;66122;47.130;16.844;2023-04-24T13:29:44;98814.22;;;12.37;100.00
77149;BME280;66122;47.130;16.844;2023-04-24T13:39:46;98809.34;;;12.20;100.00
77149;BME280;66122;47.130;16.844;2023-04-24T13:49:49;98792.06;;;12.25;98.90
77149;BME280;66122;47.130;16.844;2023-04-24T13:59:52;98785.88;;;12.60;97.25
77149;BME280;66122;47.130;16.844;2023-04-24T14:09:54;98783.97;;;12.73;98.46
77149;BME280;66122;47.130;16.844;2023-04-24T14:19:57;98774.78;;;12.88;97.53
77149;BME280;66122;47.130;16.844;2023-04-24T14:30:02;98776.34;;;13.13;96.15
77149;BME280;66122;47.130;16.844;2023-04-24T14:40:07;98781.41;;;13.27;97.61
77149;BME280;66122;47.130;16.844;2023-04-24T14:50:30;98757.78;;;13.45;95.45
77149;BME280;66122;47.130;16.844;2023-04-24T15:00:33;98758.81;;;13.10;98.02
77149;BME280;66122;47.130;16.844;2023-04-24T15:10:36;98766.31;;;12.94;98.79
77149;BME280;66122;47.130;16.844;2023-04-24T15:20:38;98767.47;;;13.12;100.00
77149;BME280;66122;47.130;16.844;2023-04-24T15:30:41;98757.38;;;13.17;98.00
77149;BME280;66122;47.130;16.844;2023-04-24T15:40:44;98765.94;;;12.99;94.35
77149;BME280;66122;47.130;16.844;2023-04-24T15:50:47;98773.22;;;12.74;95.91
77149;BME280;66122;47.130;16.844;2023-04-24T16:00:49;98772.56;;;12.37;99.70
77149;BME280;66122;47.130;16.844;2023-04-24T16:10:52;98773.63;;;12.24;100.00
77149;BME280;66122;47.130;16.844;2023-04-24T16:20:55;98779.56;;;12.38;100.00
77149;BME280;66122;47.130;16.844;2023-04-24T16:30:58;98787.28;;;12.41;98.47
77149;BME280;66122;47.130;16.844;2023-04-24T16:41:01;98786.97;;;12.46;98.77
77149;BME280;66122;47.130;16.844;2023-04-24T16:51:04;98782.81;;;12.31;100.00
77149;BME280;66122;47.130;16.844;2023-04-24T17:01:06;98795.50;;;12.03;100.00
77149;BME280;66122;47.130;16.844;2023-04-24T17:11:09;98822.22;;;12.13;100.00
77149;BME280;66122;47.130;16.844;2023-04-24T17:21:12;98842.91;;;12.21;100.00
77149;BME280;66122;47.130;16.844;2023-04-24T17:31:15;98839.75;;;12.16;100.00
77149;BME280;66122;47.130;16.844;2023-04-24T17:41:23;98834.91;;;12.09;100.00
77149;BME280;66122;47.130;16.844;2023-04-24T17:51:26;98847.28;;;11.98;97.60
77149;BME280;66122;47.130;16.844;2023-04-24T18:01:29;98850.28;;;11.93;98.14
77149;BME280;66122;47.130;16.844;2023-04-24T18:11:34;98856.66;;;11.91;97.37
77149;BME280;66122;47.130;16.844;2023-04-24T18:21:36;98872.44;;;11.81;96.79
77149;BME280;66122;47.130;16.844;2023-04-24T18:31:40;98888.59;;;11.65;97.65
77149;BME280;66122;47.130;16.844;2023-04-24T18:41:43;98904.75;;;11.50;99.24
77149;BME280;66122;47.130;16.844;2023-04-24T18:51:45;98937.91;;;11.19;100.00
77149;BME280;66122;47.130;16.844;2023-04-24T19:01:56;98931.75;;;11.18;95.84
77149;BME280;66122;47.130;16.844;2023-04-24T19:11:59;98945.34;;;11.01;97.57
77149;BME280;66122;47.130;16.844;2023-04-24T19:22:03;98942.78;;;11.00;96.58
77149;BME280;66122;47.130;16.844;2023-04-24T19:32:06;98950.94;;;10.96;96.83
77149;BME280;66122;47.130;16.844;2023-04-24T19:42:10;98962.72;;;10.80;97.28
77149;BME280;66122;47.130;16.844;2023-04-24T19:52:13;98960.91;;;10.41;100.00
77149;BME280;66122;47.130;16.844;2023-04-24T20:02:18;98966.47;;;10.63;97.83
77149;BME280;66122;47.130;16.844;2023-04-24T20:12:21;98963.84;;;10.63;99.11
77149;BME280;66122;47.130;16.844;2023-04-24T20:22:24;98961.81;;;10.67;97.86
77149;BME280;66122;47.130;16.844;2023-04-24T20:32:27;98963.06;;;10.61;100.00
77149;BME280;66122;47.130;16.844;2023-04-24T20:42:30;98965.81;;;10.60;98.29
77149;BME280;66122;47.130;16.844;2023-04-24T20:52:33;98954.50;;;10.31;100.00
77149;BME280;66122;47.130;16.844;2023-04-24T21:02:36;98966.22;;;10.41;100.00
77149;BME280;66122;47.130;16.844;2023-04-24T21:12:39;98967.16;;;10.40;98.72
77149;BME280;66122;47.130;16.844;2023-04-24T21:22:41;98963.66;;;10.39;100.00
77149;BME280;66122;47.130;16.844;2023-04-24T21:32:44;98966.63;;;10.35;98.01
77149;BME280;66122;47.130;16.844;2023-04-24T21:42:47;98968.66;;;10.17;99.81
77149;BME280;66122;47.130;16.844;2023-04-24T21:52:49;98958.31;;;10.27;97.32
77149;BME280;66122;47.130;16.844;2023-04-24T22:02:52;98946.44;;;10.20;90.15
77149;BME280;66122;47.130;16.844;2023-04-24T22:12:55;98965.72;;;10.22;88.16
77149;BME280;66122;47.130;16.844;2023-04-24T22:22:57;98964.06;;;9.92;92.10
77149;BME280;66122;47.130;16.844;2023-04-24T22:33:00;98953.91;;;9.72;93.65
77149;BME280;66122;47.130;16.844;2023-04-24T22:43:02;98965.66;;;9.39;97.71
77149;BME280;66122;47.130;16.844;2023-04-24T22:53:05;98959.22;;;9.72;95.49
77149;BME280;66122;47.130;16.844;2023-04-24T23:03:08;98967.78;;;9.75;94.50
77149;BME280;66122;47.130;16.844;2023-04-24T23:13:11;98971.75;;;9.68;95.21
77149;BME280;66122;47.130;16.844;2023-04-24T23:23:13;98970.06;;;9.53;95.59
77149;BME280;66122;47.130;16.844;2023-04-24T23:33:17;98965.81;;;9.36;95.42
77149;BME280;66122;47.130;16.844;2023-04-24T23:43:20;98955.16;;;9.52;93.15
77149;BME280;66122;47.130;16.844;2023-04-24T23:53:22;98962.34;;;9.64;93.40
